createdAt,value
2022-08-27T00:01:41.470Z,69.02
2022-08-27T00:16:43.164Z,70.64
2022-08-27T00:31:45.025Z,71.56
2022-08-27T00:46:56.951Z,73.72
2022-08-27T01:02:18.013Z,73.60
2022-08-27T01:17:19.571Z,73.34
2022-08-27T01:32:24.057Z,77.62
2022-08-27T01:47:30.306Z,75.04
2022-08-27T02:02:32.732Z,77.85
2022-08-27T02:17:34.437Z,77.79
2022-08-27T02:32:36.018Z,76.68
2022-08-27T02:47:37.913Z,79.88
2022-08-27T03:02:39.554Z,76.95
2022-08-27T03:17:59.742Z,78.59
2022-08-27T03:33:01.277Z,77.44
2022-08-27T03:48:03.245Z,79.00
2022-08-27T04:03:06.063Z,78.18
2022-08-27T04:18:07.730Z,71.03
2022-08-27T04:33:09.404Z,71.22
2022-08-27T04:48:12.243Z,65.93
2022-08-27T05:03:14.095Z,61.20
2022-08-27T05:18:16.120Z,60.32
2022-08-27T05:33:19.757Z,54.84
2022-08-27T05:48:21.300Z,50.73
2022-08-27T06:03:22.836Z,56.07
2022-08-27T06:18:24.385Z,48.11
2022-08-27T06:33:25.908Z,47.92
2022-08-27T06:48:27.627Z,47.01
2022-08-27T07:03:29.255Z,46.42
2022-08-27T07:18:31.105Z,48.44
2022-08-27T07:33:33.068Z,46.92
2022-08-27T07:48:35.124Z,46.76
2022-08-27T08:03:38.276Z,43.58
2022-08-27T08:18:40.732Z,44.16
2022-08-27T08:33:42.360Z,42.54
2022-08-27T08:48:47.217Z,44.40
2022-08-27T09:03:57.460Z,42.22
2022-08-27T09:19:02.222Z,37.11
2022-08-27T09:34:07.643Z,33.88
2022-08-27T09:49:10.089Z,34.84
2022-08-27T10:04:13.839Z,27.82
2022-08-27T10:19:27.841Z,31.94
2022-08-27T10:34:43.424Z,31.73
2022-08-27T10:49:45.081Z,28.76
2022-08-27T11:04:52.555Z,29.29
2022-08-27T11:20:00.228Z,29.05
2022-08-27T11:35:03.922Z,29.07
2022-08-27T11:50:08.114Z,28.74
2022-08-27T12:05:24.397Z,29.33
2022-08-27T12:20:36.887Z,29.84
2022-08-27T12:35:44.586Z,29.07
2022-08-27T12:50:51.333Z,29.17
2022-08-27T13:05:57.518Z,28.41
2022-08-27T13:21:09.139Z,30.03
2022-08-27T13:36:12.453Z,28.14
2022-08-27T13:51:14.434Z,29.88
2022-08-27T14:06:23.350Z,30.35
2022-08-27T14:21:24.990Z,32.48
2022-08-27T14:36:29.521Z,32.30
2022-08-27T14:51:32.439Z,32.36
2022-08-27T15:06:34.048Z,33.71
2022-08-27T15:21:37.055Z,37.60
2022-08-27T15:36:38.680Z,40.58
2022-08-27T15:51:40.295Z,41.52
2022-08-27T16:06:42.151Z,43.72
2022-08-27T16:21:43.930Z,42.12
2022-08-27T16:36:45.833Z,42.25
2022-08-27T16:51:47.497Z,42.07
2022-08-27T17:06:52.012Z,45.40
2022-08-27T17:21:55.074Z,45.27
2022-08-27T17:36:56.730Z,47.94
2022-08-27T17:52:03.157Z,47.89
2022-08-27T18:07:05.013Z,46.37
2022-08-27T18:22:06.819Z,42.87
2022-08-27T18:37:08.319Z,41.21
2022-08-27T18:52:12.228Z,41.14
2022-08-27T19:07:13.793Z,43.14
2022-08-27T19:22:15.367Z,43.16
2022-08-27T19:37:18.903Z,47.29
2022-08-27T19:52:21.005Z,48.66
2022-08-27T20:07:22.526Z,50.52
2022-08-27T20:22:24.396Z,54.76
2022-08-27T20:37:25.948Z,56.93
2022-08-27T20:52:27.529Z,61.45
2022-08-27T21:07:29.127Z,59.66
2022-08-27T21:22:30.721Z,58.68
2022-08-27T21:37:32.449Z,60.79
2022-08-27T21:52:33.968Z,61.93
2022-08-27T22:16:07.680Z,60.42
2022-08-27T22:31:09.364Z,62.66
2022-08-27T22:46:11.258Z,65.40
2022-08-27T23:01:12.890Z,65.81
2022-08-27T23:16:15.869Z,65.58
2022-08-27T23:31:17.715Z,69.09
2022-08-27T23:46:19.343Z,68.11
